createdAt,value
2023-01-23T00:01:07.315Z,19.80
2023-01-23T00:03:34.260Z,19.05
2023-01-23T00:06:03.222Z,19.27
2023-01-23T00:08:30.042Z,22.95
2023-01-23T00:10:57.067Z,19.13
2023-01-23T00:13:23.970Z,21.48
2023-01-23T00:15:51.762Z,20.42
2023-01-23T00:18:18.500Z,19.65
2023-01-23T00:20:45.092Z,20.75
2023-01-23T00:23:12.451Z,22.85
2023-01-23T00:25:39.231Z,18.90
2023-01-23T00:28:05.880Z,19.30
2023-01-23T00:30:32.995Z,20.25
2023-01-23T00:32:59.658Z,19.08
2023-01-23T00:35:26.344Z,21.35
2023-01-23T00:37:53.103Z,18.10
2023-01-23T00:40:20.020Z,17.23
2023-01-23T00:42:46.952Z,20.92
2023-01-23T00:45:13.583Z,18.42
2023-01-23T00:47:40.183Z,16.88
2023-01-23T00:50:06.949Z,17.92
2023-01-23T00:52:33.768Z,18.85
2023-01-23T00:55:00.419Z,18.17
2023-01-23T00:57:27.204Z,19.55
2023-01-23T00:59:53.804Z,16.88
2023-01-23T01:02:20.395Z,21.17
2023-01-23T01:04:46.972Z,17.00
2023-01-23T01:07:13.645Z,17.02
2023-01-23T01:09:40.243Z,16.85
2023-01-23T01:12:07.122Z,16.35
2023-01-23T01:14:33.712Z,16.40
2023-01-23T01:17:00.382Z,17.65
2023-01-23T01:19:28.189Z,16.15
2023-01-23T01:21:54.825Z,18.33
2023-01-23T01:24:21.474Z,15.15
2023-01-23T01:26:48.074Z,16.30
2023-01-23T01:29:15.776Z,17.15
2023-01-23T01:31:42.501Z,15.43
2023-01-23T01:34:09.125Z,15.73
2023-01-23T01:36:35.707Z,18.30
2023-01-23T01:39:02.392Z,15.05
2023-01-23T01:41:29.276Z,16.83
2023-01-23T01:43:57.130Z,20.00
2023-01-23T01:46:26.801Z,16.60
2023-01-23T01:48:56.317Z,16.65
2023-01-23T01:51:31.080Z,16.33
2023-01-23T01:54:14.655Z,14.82
2023-01-23T01:56:58.597Z,17.45
2023-01-23T01:59:29.619Z,16.83
2023-01-23T02:02:05.178Z,16.38
2023-01-23T02:04:36.321Z,16.58
2023-01-23T02:07:07.898Z,17.25
2023-01-23T02:09:35.348Z,15.80
2023-01-23T02:12:02.617Z,16.85
2023-01-23T02:14:29.372Z,18.35
2023-01-23T02:17:00.992Z,16.50
2023-01-23T02:19:49.385Z,15.82
2023-01-23T02:22:37.280Z,15.20
2023-01-23T02:25:22.662Z,16.88
2023-01-23T02:27:49.381Z,15.23
2023-01-23T02:30:18.617Z,16.65
2023-01-23T02:32:45.446Z,16.25
2023-01-23T02:35:19.120Z,16.80
2023-01-23T02:37:48.410Z,16.85
2023-01-23T02:40:15.576Z,15.18
2023-01-23T02:42:44.860Z,17.85
2023-01-23T02:45:11.614Z,16.05
2023-01-23T02:47:38.312Z,15.43
2023-01-23T02:50:05.264Z,14.60
2023-01-23T02:52:32.034Z,16.02
2023-01-23T02:54:58.633Z,15.80
2023-01-23T02:57:25.292Z,14.50
2023-01-23T03:00:10.511Z,14.48
2023-01-23T03:02:39.370Z,15.65
2023-01-23T03:05:06.532Z,14.50
2023-01-23T03:07:33.151Z,13.77
2023-01-23T03:09:59.811Z,15.02
2023-01-23T03:12:26.564Z,13.57
2023-01-23T03:14:54.895Z,16.85
2023-01-23T03:17:22.860Z,15.00
2023-01-23T03:19:49.668Z,15.65
2023-01-23T03:22:16.334Z,19.33
2023-01-23T03:24:43.062Z,15.38
2023-01-23T03:27:09.707Z,14.63
2023-01-23T03:29:54.811Z,16.15
2023-01-23T03:32:22.527Z,13.95
2023-01-23T03:34:49.102Z,15.73
2023-01-23T03:37:16.768Z,14.50
2023-01-23T03:40:02.202Z,14.10
2023-01-23T03:42:28.779Z,13.98
2023-01-23T03:44:55.590Z,14.40
2023-01-23T03:47:22.176Z,13.75
2023-01-23T03:49:48.819Z,13.68
2023-01-23T03:52:15.474Z,14.57
2023-01-23T03:54:43.179Z,12.77
2023-01-23T03:57:10.759Z,13.05
2023-01-23T03:59:37.403Z,15.80
2023-01-23T04:02:04.987Z,13.63
2023-01-23T04:04:35.794Z,15.95
2023-01-23T04:07:03.748Z,14.82
2023-01-23T04:09:30.406Z,15.55
2023-01-23T04:11:59.207Z,13.82
2023-01-23T04:14:26.793Z,11.82
2023-01-23T04:16:53.982Z,12.63
2023-01-23T04:19:20.868Z,12.18
2023-01-23T04:21:48.947Z,10.60
2023-01-23T04:24:17.112Z,12.32
2023-01-23T04:26:43.856Z,12.02
2023-01-23T04:29:10.759Z,11.38
2023-01-23T04:31:37.458Z,13.40
2023-01-23T04:34:04.234Z,13.50
2023-01-23T04:36:30.941Z,13.30
2023-01-23T04:38:58.552Z,11.63
2023-01-23T04:41:28.335Z,13.13
2023-01-23T04:43:55.086Z,12.15
2023-01-23T04:46:21.778Z,14.63
2023-01-23T04:48:49.498Z,15.98
2023-01-23T04:51:16.281Z,12.05
2023-01-23T04:53:42.927Z,12.05
2023-01-23T04:56:09.550Z,12.88
2023-01-23T04:58:37.088Z,11.43
2023-01-23T05:01:08.673Z,14.25
2023-01-23T05:03:35.459Z,14.35
2023-01-23T05:06:02.226Z,13.48
2023-01-23T05:08:28.883Z,12.38
2023-01-23T05:10:55.476Z,13.57
2023-01-23T05:13:22.244Z,14.25
2023-01-23T05:15:48.904Z,12.55
2023-01-23T05:18:15.495Z,16.98
2023-01-23T05:20:42.084Z,12.18
2023-01-23T05:23:08.858Z,12.10
2023-01-23T05:25:35.458Z,12.65
2023-01-23T05:28:02.085Z,12.73
2023-01-23T05:30:29.813Z,14.05
2023-01-23T05:32:56.478Z,12.80
2023-01-23T05:35:23.109Z,13.02
2023-01-23T05:37:51.427Z,15.80
2023-01-23T05:40:19.110Z,14.38
2023-01-23T05:42:46.530Z,13.45
2023-01-23T05:45:13.744Z,16.05
2023-01-23T05:47:41.042Z,15.88
2023-01-23T05:50:12.595Z,14.68
2023-01-23T05:52:39.220Z,13.00
2023-01-23T05:55:06.276Z,13.50
2023-01-23T05:57:34.397Z,17.25
2023-01-23T06:00:01.056Z,13.80
2023-01-23T06:02:27.846Z,27.13
2023-01-23T06:04:55.848Z,31.17
2023-01-23T06:07:23.657Z,29.58
2023-01-23T06:09:50.425Z,29.52
2023-01-23T06:12:17.348Z,40.40
2023-01-23T06:14:43.947Z,27.27
2023-01-23T06:17:11.993Z,21.15
2023-01-23T06:19:38.709Z,16.40
2023-01-23T06:22:05.580Z,17.95
2023-01-23T06:24:32.376Z,17.55
2023-01-23T06:26:59.040Z,17.52
2023-01-23T06:29:25.752Z,17.90
2023-01-23T06:31:52.406Z,16.23
2023-01-23T06:34:19.093Z,18.48
2023-01-23T06:36:46.216Z,18.70
2023-01-23T06:39:13.801Z,24.55
2023-01-23T06:41:40.581Z,33.95
2023-01-23T06:44:07.737Z,20.15
2023-01-23T06:46:34.627Z,20.00
2023-01-23T06:49:01.257Z,16.48
2023-01-23T06:51:27.980Z,17.92
2023-01-23T06:53:54.624Z,16.55
2023-01-23T06:56:21.260Z,16.95
2023-01-23T06:58:48.742Z,15.13
2023-01-23T07:01:18.381Z,17.63
2023-01-23T07:03:45.410Z,16.08
2023-01-23T07:06:13.295Z,16.30
2023-01-23T07:08:40.376Z,15.18
2023-01-23T07:11:07.473Z,14.57
2023-01-23T07:13:34.484Z,17.60
2023-01-23T07:16:01.846Z,17.27
2023-01-23T07:18:30.207Z,18.73
2023-01-23T07:20:56.988Z,16.58
2023-01-23T07:23:23.778Z,16.23
2023-01-23T07:25:50.508Z,20.02
2023-01-23T07:28:17.096Z,16.55
2023-01-23T07:30:43.858Z,16.88
2023-01-23T07:33:11.785Z,18.88
2023-01-23T07:35:39.379Z,14.65
2023-01-23T07:38:05.996Z,18.20
2023-01-23T07:40:32.797Z,16.45
2023-01-23T07:42:59.566Z,17.42
2023-01-23T07:45:26.284Z,16.52
2023-01-23T07:47:52.900Z,18.02
2023-01-23T07:50:19.746Z,16.27
2023-01-23T07:52:46.544Z,17.70
2023-01-23T07:55:13.258Z,15.40
2023-01-23T07:57:39.954Z,18.05
2023-01-23T08:00:07.589Z,16.58
2023-01-23T08:02:34.200Z,14.52
2023-01-23T08:05:00.854Z,16.92
2023-01-23T08:07:28.650Z,15.48
2023-01-23T08:09:55.289Z,15.27
2023-01-23T08:12:21.884Z,13.93
2023-01-23T08:14:48.631Z,16.63
2023-01-23T08:17:15.257Z,15.57
2023-01-23T08:19:41.919Z,14.45
2023-01-23T08:22:08.500Z,14.18
2023-01-23T08:24:35.103Z,15.32
2023-01-23T08:27:01.746Z,14.60
2023-01-23T08:29:28.475Z,15.40
2023-01-23T08:31:55.253Z,14.02
2023-01-23T08:34:23.966Z,14.50
2023-01-23T08:36:50.867Z,14.30
2023-01-23T08:39:18.274Z,14.30
2023-01-23T08:41:44.903Z,13.02
2023-01-23T08:44:11.824Z,14.10
2023-01-23T08:46:38.606Z,12.95
2023-01-23T08:49:05.417Z,15.35
2023-01-23T08:51:32.104Z,13.25
2023-01-23T08:53:58.818Z,11.25
2023-01-23T08:56:25.705Z,10.90
2023-01-23T08:58:52.736Z,11.05
2023-01-23T09:01:22.466Z,11.70
2023-01-23T09:03:49.247Z,16.77
2023-01-23T09:06:18.042Z,13.93
2023-01-23T09:08:45.077Z,9.30
2023-01-23T09:11:13.050Z,11.73
2023-01-23T09:13:40.458Z,10.05
2023-01-23T09:16:10.661Z,8.60
2023-01-23T09:18:38.617Z,10.77
2023-01-23T09:21:11.331Z,10.32
2023-01-23T09:23:38.302Z,8.80
2023-01-23T09:26:11.574Z,9.20
2023-01-23T09:28:41.810Z,10.55
2023-01-23T09:31:11.796Z,9.10
2023-01-23T09:33:38.495Z,8.95
2023-01-23T09:36:05.795Z,9.45
2023-01-23T09:38:33.951Z,10.00
2023-01-23T09:41:07.614Z,9.98
2023-01-23T09:43:37.181Z,9.50
2023-01-23T09:46:50.801Z,8.73
2023-01-23T09:49:17.468Z,8.40
2023-01-23T09:51:51.372Z,8.02
2023-01-23T09:54:40.755Z,8.80
2023-01-23T09:57:19.583Z,8.43
2023-01-23T10:00:10.816Z,9.32
2023-01-23T10:02:37.620Z,8.32
2023-01-23T10:05:04.593Z,8.48
2023-01-23T10:07:43.425Z,9.95
2023-01-23T10:10:58.693Z,8.18
2023-01-23T10:13:52.880Z,8.85
2023-01-23T10:16:44.965Z,9.43
2023-01-23T10:19:48.119Z,9.32
2023-01-23T10:22:33.516Z,8.30
2023-01-23T10:25:03.756Z,8.75
2023-01-23T10:27:38.851Z,8.45
2023-01-23T10:30:28.563Z,8.32
2023-01-23T10:33:14.417Z,9.55
2023-01-23T10:36:01.602Z,9.35
2023-01-23T10:38:49.570Z,9.68
2023-01-23T10:41:23.290Z,9.65
2023-01-23T10:43:52.835Z,9.50
2023-01-23T10:46:22.378Z,9.40
2023-01-23T10:48:52.748Z,9.02
2023-01-23T10:51:35.382Z,9.60
2023-01-23T10:54:30.701Z,9.05
2023-01-23T10:57:09.079Z,8.63
2023-01-23T10:59:51.105Z,10.10
2023-01-23T11:02:26.317Z,10.20
2023-01-23T11:04:53.116Z,9.95
2023-01-23T11:07:32.483Z,9.05
2023-01-23T11:10:11.657Z,9.60
2023-01-23T11:12:54.091Z,10.93
2023-01-23T11:15:29.641Z,8.82
2023-01-23T11:17:59.203Z,9.23
2023-01-23T11:20:30.877Z,9.45
2023-01-23T11:23:10.855Z,10.45
2023-01-23T11:25:48.772Z,10.60
2023-01-23T11:28:26.865Z,11.98
2023-01-23T11:31:13.940Z,11.32
2023-01-23T11:34:06.116Z,11.18
2023-01-23T11:36:42.789Z,12.02
2023-01-23T11:39:18.589Z,10.02
2023-01-23T11:41:46.332Z,10.90
2023-01-23T11:44:23.099Z,10.02
2023-01-23T11:46:59.453Z,10.20
2023-01-23T11:49:28.866Z,9.95
2023-01-23T11:52:30.443Z,10.10
2023-01-23T11:55:25.506Z,10.88
2023-01-23T11:57:52.100Z,12.00
2023-01-23T12:00:37.573Z,11.57
2023-01-23T12:03:24.268Z,9.57
2023-01-23T12:06:20.542Z,9.50
2023-01-23T12:09:17.237Z,10.63
2023-01-23T12:12:22.808Z,11.02
2023-01-23T12:15:09.047Z,11.57
2023-01-23T12:18:04.555Z,10.45
2023-01-23T12:20:47.551Z,11.23
2023-01-23T12:23:38.671Z,11.23
2023-01-23T12:26:14.666Z,12.10
2023-01-23T12:29:15.529Z,10.85
2023-01-23T12:32:01.187Z,11.05
2023-01-23T12:35:05.541Z,10.82
2023-01-23T12:38:04.546Z,10.60
2023-01-23T12:40:50.639Z,12.05
2023-01-23T12:43:35.425Z,10.43
2023-01-23T12:46:27.453Z,10.90
2023-01-23T12:49:09.721Z,13.02
2023-01-23T12:51:43.845Z,11.40
2023-01-23T12:54:18.519Z,11.38
2023-01-23T12:56:46.416Z,13.20
2023-01-23T12:59:33.820Z,12.32
2023-01-23T13:02:19.357Z,15.82
2023-01-23T13:05:19.848Z,11.88
2023-01-23T13:07:51.026Z,10.10
2023-01-23T13:10:51.780Z,13.65
2023-01-23T13:13:19.900Z,12.65
2023-01-23T13:16:02.973Z,12.88
2023-01-23T13:18:29.822Z,11.40
2023-01-23T13:21:17.313Z,11.95
2023-01-23T13:23:44.626Z,11.40
2023-01-23T13:26:19.394Z,10.68
2023-01-23T13:28:50.320Z,11.50
2023-01-23T13:31:50.188Z,10.82
2023-01-23T13:34:17.078Z,10.45
2023-01-23T13:36:45.533Z,11.93
2023-01-23T13:39:17.977Z,14.50
2023-01-23T13:42:06.166Z,12.88
2023-01-23T13:44:42.037Z,13.90
2023-01-23T14:21:57.020Z,11.15
2023-01-23T14:24:29.607Z,11.73
2023-01-23T14:27:08.901Z,10.68
2023-01-23T14:29:36.182Z,12.15
2023-01-23T14:32:03.098Z,14.70
2023-01-23T14:34:29.848Z,12.70
2023-01-23T14:37:04.122Z,12.05
2023-01-23T14:39:33.625Z,12.10
2023-01-23T14:42:02.665Z,14.25
2023-01-23T14:44:45.392Z,11.13
2023-01-23T14:47:39.428Z,11.65
2023-01-23T14:50:17.764Z,12.40
2023-01-23T14:52:44.536Z,12.60
2023-01-23T14:55:29.784Z,15.00
2023-01-23T14:57:58.676Z,12.70
2023-01-23T15:00:27.028Z,14.65
2023-01-23T15:02:55.773Z,14.95
2023-01-23T15:05:26.745Z,17.05
2023-01-23T15:08:03.482Z,12.35
2023-01-23T15:10:36.256Z,13.85
2023-01-23T15:13:22.812Z,14.05
2023-01-23T15:15:58.536Z,12.18
2023-01-23T15:18:34.800Z,13.20
2023-01-23T15:21:04.033Z,12.85
2023-01-23T15:23:31.939Z,13.65
2023-01-23T15:26:17.316Z,13.25
2023-01-23T15:29:04.347Z,13.73
2023-01-23T15:31:32.592Z,13.60
2023-01-23T15:34:14.800Z,13.23
2023-01-23T15:36:48.636Z,13.73
2023-01-23T15:39:39.994Z,13.93
2023-01-23T15:42:12.691Z,12.25
2023-01-23T15:44:39.457Z,13.77
2023-01-23T15:47:06.366Z,15.32
2023-01-23T15:49:40.425Z,14.68
2023-01-23T15:52:26.778Z,13.13
2023-01-23T15:54:58.197Z,13.10
2023-01-23T15:57:24.852Z,12.82
2023-01-23T15:59:51.447Z,13.23
2023-01-23T16:02:32.927Z,14.32
2023-01-23T16:05:01.831Z,13.80
2023-01-23T16:07:35.070Z,14.30
2023-01-23T16:10:05.043Z,14.68
2023-01-23T16:12:32.845Z,13.80
2023-01-23T16:14:59.555Z,18.17
2023-01-23T16:17:26.472Z,14.30
2023-01-23T16:19:54.289Z,12.43
2023-01-23T16:22:29.274Z,13.15
2023-01-23T16:24:57.488Z,14.75
2023-01-23T16:27:27.387Z,13.35
2023-01-23T16:29:55.498Z,15.00
2023-01-23T16:32:22.770Z,12.50
2023-01-23T16:34:49.718Z,13.20
2023-01-23T16:37:18.506Z,15.90
2023-01-23T16:39:47.785Z,14.07
2023-01-23T16:42:22.537Z,13.60
2023-01-23T16:44:50.316Z,16.48
2023-01-23T16:47:17.133Z,17.55
2023-01-23T16:49:51.998Z,12.85
2023-01-23T16:52:20.335Z,17.83
2023-01-23T16:54:47.072Z,12.45
2023-01-23T16:57:19.990Z,16.13
2023-01-23T16:59:47.948Z,15.82
2023-01-23T17:02:30.826Z,14.20
2023-01-23T17:04:57.724Z,13.75
2023-01-23T17:07:24.511Z,15.98
2023-01-23T17:09:51.690Z,21.20
2023-01-23T17:12:21.696Z,14.60
2023-01-23T17:14:49.834Z,13.25
2023-01-23T17:17:27.615Z,14.85
2023-01-23T17:19:55.049Z,15.82
2023-01-23T17:22:25.879Z,13.95
2023-01-23T17:24:52.824Z,18.70
2023-01-23T17:27:19.427Z,16.27
2023-01-23T17:29:46.112Z,17.25
2023-01-23T17:32:25.710Z,14.98
2023-01-23T17:34:52.412Z,16.42
2023-01-23T17:37:23.436Z,19.30
2023-01-23T17:39:50.326Z,17.85
2023-01-23T17:42:17.068Z,15.75
2023-01-23T17:44:43.678Z,13.65
2023-01-23T17:47:12.121Z,17.50
2023-01-23T17:49:39.563Z,15.20
2023-01-23T17:52:06.555Z,14.45
2023-01-23T17:54:33.267Z,13.60
2023-01-23T17:56:59.977Z,14.00
2023-01-23T17:59:26.624Z,14.23
2023-01-23T18:01:53.471Z,14.73
2023-01-23T18:04:22.413Z,17.05
2023-01-23T18:06:50.051Z,15.48
2023-01-23T18:09:17.323Z,15.68
2023-01-23T18:11:52.447Z,12.45
2023-01-23T18:14:37.512Z,16.65
2023-01-23T18:17:18.889Z,14.02
2023-01-23T18:19:45.713Z,13.88
2023-01-23T18:22:12.692Z,18.42
2023-01-23T18:24:39.575Z,16.73
2023-01-23T18:27:24.450Z,15.75
2023-01-23T18:30:03.315Z,16.05
2023-01-23T18:33:12.694Z,13.45
2023-01-23T18:35:54.697Z,14.57
2023-01-23T18:38:47.819Z,13.70
2023-01-23T18:41:26.145Z,15.23
2023-01-23T18:44:18.336Z,14.27
2023-01-23T18:46:45.127Z,14.27
2023-01-23T18:49:14.932Z,14.30
2023-01-23T18:51:54.575Z,15.20
2023-01-23T18:54:41.963Z,15.02
2023-01-23T18:57:26.857Z,15.98
2023-01-23T18:59:53.548Z,17.20
2023-01-23T19:02:30.360Z,17.20
2023-01-23T19:05:18.175Z,16.27
2023-01-23T19:07:46.289Z,15.75
2023-01-23T19:10:18.663Z,14.43
2023-01-23T19:12:52.427Z,15.07
2023-01-23T19:15:28.880Z,13.98
2023-01-23T19:18:13.579Z,17.02
2023-01-23T19:20:53.897Z,16.52
2023-01-23T19:23:58.119Z,14.32
2023-01-23T19:26:27.681Z,15.43
2023-01-23T19:28:55.797Z,15.07
2023-01-23T19:31:27.160Z,18.10
2023-01-23T19:33:54.824Z,18.10
2023-01-23T19:36:22.915Z,17.30
2023-01-23T19:38:50.422Z,18.60
2023-01-23T19:41:44.705Z,16.95
2023-01-23T19:44:14.432Z,16.95
2023-01-23T19:46:41.510Z,16.13
2023-01-23T19:49:08.577Z,15.20
2023-01-23T19:51:35.425Z,15.77
2023-01-23T19:54:02.733Z,15.55
2023-01-23T19:56:30.144Z,16.08
2023-01-23T19:58:56.771Z,16.35
2023-01-23T20:01:43.386Z,17.33
2023-01-23T20:04:16.064Z,21.00
2023-01-23T20:06:45.203Z,14.43
2023-01-23T20:09:14.487Z,15.93
2023-01-23T20:11:42.153Z,14.15
2023-01-23T20:14:08.747Z,17.65
2023-01-23T20:16:40.097Z,18.40
2023-01-23T20:19:07.449Z,15.52
2023-01-23T20:21:34.409Z,13.95
2023-01-23T20:24:01.069Z,18.48
2023-01-23T20:26:27.879Z,15.25
2023-01-23T20:28:54.613Z,15.50
2023-01-23T20:31:21.822Z,14.93
2023-01-23T20:33:49.205Z,16.73
2023-01-23T20:36:16.174Z,15.82
2023-01-23T20:38:43.034Z,17.27
2023-01-23T20:41:16.235Z,17.15
2023-01-23T20:43:43.281Z,17.15
2023-01-23T20:46:11.561Z,15.27
2023-01-23T20:48:40.793Z,20.58
2023-01-23T20:51:09.725Z,19.33
2023-01-23T20:53:39.412Z,17.05
2023-01-23T20:56:14.374Z,16.77
2023-01-23T20:59:02.006Z,15.85
2023-01-23T21:01:51.103Z,25.58
2023-01-23T21:04:18.267Z,17.15
2023-01-23T21:06:44.902Z,17.60
2023-01-23T21:09:11.500Z,13.55
2023-01-23T21:11:38.083Z,13.35
2023-01-23T21:14:04.824Z,14.20
2023-01-23T21:16:31.441Z,14.20
2023-01-23T21:18:58.063Z,12.82
2023-01-23T21:21:24.694Z,14.30
2023-01-23T21:23:51.875Z,12.60
2023-01-23T21:26:22.276Z,12.05
2023-01-23T21:28:50.570Z,12.07
2023-01-23T21:31:20.351Z,14.30
2023-01-23T21:33:47.465Z,14.10
2023-01-23T21:36:16.287Z,16.42
2023-01-23T21:38:43.711Z,16.15
2023-01-23T21:41:10.314Z,14.45
2023-01-23T21:43:36.971Z,13.10
2023-01-23T21:46:05.349Z,13.52
2023-01-23T21:48:33.365Z,13.70
2023-01-23T21:51:11.389Z,14.10
2023-01-23T21:53:39.362Z,12.82
2023-01-23T21:56:07.032Z,16.05
2023-01-23T21:58:34.145Z,17.15
2023-01-23T22:01:22.440Z,18.55
2023-01-23T22:03:49.804Z,14.50
2023-01-23T22:06:17.013Z,13.98
2023-01-23T22:08:43.636Z,13.90
2023-01-23T22:11:10.999Z,16.13
2023-01-23T22:13:37.914Z,15.65
2023-01-23T22:16:05.348Z,13.82
2023-01-23T22:18:33.545Z,12.60
2023-01-23T22:21:04.801Z,15.10
2023-01-23T22:23:31.599Z,14.85
2023-01-23T22:26:01.135Z,14.13
2023-01-23T22:28:28.407Z,14.55
2023-01-23T22:30:55.765Z,15.43
2023-01-23T22:33:23.973Z,17.02
2023-01-23T22:35:52.293Z,14.95
2023-01-23T22:38:19.073Z,13.93
2023-01-23T22:40:45.775Z,15.10
2023-01-23T22:43:12.463Z,15.65
2023-01-23T22:45:39.075Z,15.27
2023-01-23T22:48:05.878Z,13.63
2023-01-23T22:50:32.505Z,13.43
2023-01-23T22:53:00.150Z,13.00
2023-01-23T22:55:26.876Z,12.57
2023-01-23T22:57:54.609Z,14.38
2023-01-23T23:00:21.370Z,16.55
2023-01-23T23:02:47.976Z,14.70
2023-01-23T23:05:14.793Z,13.65
2023-01-23T23:07:41.645Z,13.65
2023-01-23T23:10:11.059Z,14.20
2023-01-23T23:12:37.671Z,19.45
2023-01-23T23:15:04.742Z,18.40
2023-01-23T23:17:31.418Z,15.45
2023-01-23T23:19:58.051Z,13.95
2023-01-23T23:22:24.769Z,14.65
2023-01-23T23:24:51.367Z,18.67
2023-01-23T23:27:17.934Z,10.98
2023-01-23T23:29:44.546Z,13.25
2023-01-23T23:32:11.250Z,12.02
2023-01-23T23:34:37.851Z,12.45
2023-01-23T23:37:04.549Z,13.70
2023-01-23T23:39:31.327Z,12.75
2023-01-23T23:41:58.596Z,12.65
2023-01-23T23:44:25.320Z,15.48
2023-01-23T23:46:52.051Z,30.70
2023-01-23T23:49:18.636Z,12.55
2023-01-23T23:51:46.280Z,18.92
2023-01-23T23:54:12.896Z,21.80
2023-01-23T23:56:39.573Z,13.75
2023-01-23T23:59:06.171Z,11.00
